Cuaca Aktual Bandara Mali

Waktu Pengamatan : 2021-11-29 07:00:00 WITA


DAY-CLEAR-CLOUDY
Cerah - berawan
Suhu Udara
26 °C
Titik Embun
25 °C

Tekanan Udara 1009 hPa
Jarak Pandang >=10 km

Angin
Tenang
METAR Terkini : METAR WATM 282300Z 00000KT 9999 FEW019 26/25 Q1009|NOSIG=